createdAt,value
2022-10-04T00:02:15.371Z,13.05
2022-10-04T00:04:53.009Z,13.13
2022-10-04T00:07:26.492Z,13.19
2022-10-04T00:10:18.399Z,13.16
2022-10-04T00:13:05.956Z,13.13
2022-10-04T00:15:39.137Z,12.99
2022-10-04T00:18:11.326Z,13.00
2022-10-04T00:20:47.433Z,13.00
2022-10-04T00:23:38.099Z,12.92
2022-10-04T00:26:10.723Z,12.88
2022-10-04T00:28:37.023Z,12.85
2022-10-04T00:31:24.717Z,12.94
2022-10-04T00:34:17.239Z,12.87
2022-10-04T00:36:51.791Z,12.88
2022-10-04T00:39:34.269Z,12.77
2022-10-04T00:42:09.795Z,12.68
2022-10-04T00:44:55.536Z,12.78
2022-10-04T00:47:46.210Z,12.74
2022-10-04T00:50:26.480Z,12.86
2022-10-04T00:52:56.926Z,12.83
2022-10-04T00:55:49.602Z,12.93
2022-10-04T00:58:23.749Z,12.79
2022-10-04T01:00:54.111Z,12.88
2022-10-04T01:03:31.841Z,12.88
2022-10-04T01:06:05.458Z,12.84
2022-10-04T01:08:36.449Z,12.66
2022-10-04T01:11:19.337Z,12.70
2022-10-04T01:13:56.565Z,12.66
2022-10-04T01:16:28.649Z,12.63
2022-10-04T01:18:56.287Z,12.78
2022-10-04T01:21:30.827Z,12.73
2022-10-04T01:24:00.161Z,12.72
2022-10-04T01:26:26.507Z,12.64
2022-10-04T01:28:55.081Z,12.50
2022-10-04T01:31:22.186Z,12.49
2022-10-04T01:33:48.834Z,12.63
2022-10-04T01:36:15.415Z,12.74
2022-10-04T01:38:41.948Z,12.71
2022-10-04T01:41:11.510Z,12.69
2022-10-04T01:43:40.752Z,12.64
2022-10-04T01:46:14.255Z,12.59
2022-10-04T01:48:44.600Z,12.39
2022-10-04T01:51:22.078Z,12.46
2022-10-04T01:54:17.705Z,12.34
2022-10-04T01:56:50.892Z,12.24
2022-10-04T01:59:24.427Z,12.37
2022-10-04T02:01:57.770Z,12.31
2022-10-04T02:04:29.280Z,12.27
2022-10-04T02:06:59.024Z,12.29
2022-10-04T02:09:30.576Z,12.35
2022-10-04T02:11:58.204Z,12.15
2022-10-04T02:14:33.183Z,12.26
2022-10-04T02:17:03.180Z,12.35
2022-10-04T02:19:39.584Z,12.36
2022-10-04T02:22:08.775Z,12.25
2022-10-04T02:24:38.845Z,12.16
2022-10-04T02:27:06.288Z,12.11
2022-10-04T02:29:33.086Z,12.04
2022-10-04T02:32:18.470Z,12.01
2022-10-04T02:34:47.596Z,11.97
2022-10-04T02:37:15.321Z,11.92
2022-10-04T02:39:49.421Z,11.85
2022-10-04T02:42:35.386Z,11.89
2022-10-04T02:45:21.280Z,11.87
2022-10-04T02:47:53.270Z,11.74
2022-10-04T02:50:35.472Z,11.92
2022-10-04T02:53:19.240Z,11.74
2022-10-04T02:55:47.557Z,11.74
2022-10-04T02:58:17.387Z,11.67
2022-10-04T03:00:49.891Z,11.72
2022-10-04T03:03:27.030Z,11.66
2022-10-04T03:06:18.012Z,11.79
2022-10-04T03:08:52.832Z,11.77
2022-10-04T03:11:24.188Z,11.72
2022-10-04T03:13:54.734Z,11.67
2022-10-04T03:16:22.020Z,11.73
2022-10-04T03:18:50.848Z,11.52
2022-10-04T03:21:20.718Z,11.67
2022-10-04T03:23:51.088Z,11.64
2022-10-04T03:26:38.984Z,11.60
2022-10-04T03:29:10.240Z,11.53
2022-10-04T03:31:43.176Z,11.53
2022-10-04T03:34:15.591Z,11.47
2022-10-04T03:36:43.138Z,11.39
2022-10-04T03:39:11.877Z,11.34
2022-10-04T03:41:40.932Z,11.44
2022-10-04T03:44:15.767Z,11.43
2022-10-04T03:46:44.648Z,11.39
2022-10-04T03:49:17.667Z,11.37
2022-10-04T03:51:48.930Z,11.25
2022-10-04T03:54:23.629Z,11.26
2022-10-04T03:56:54.198Z,11.25
2022-10-04T03:59:25.444Z,11.36
2022-10-04T04:02:13.371Z,11.37
2022-10-04T04:04:45.907Z,11.37
2022-10-04T04:07:17.135Z,11.30
2022-10-04T04:09:46.515Z,11.30
2022-10-04T04:12:27.119Z,11.18
2022-10-04T04:14:54.257Z,11.16
2022-10-04T04:17:50.941Z,11.13
2022-10-04T04:20:23.882Z,11.21
2022-10-04T04:23:01.696Z,11.12
2022-10-04T04:25:32.243Z,11.18
2022-10-04T04:28:13.964Z,11.20
2022-10-04T04:30:46.930Z,11.07
2022-10-04T04:33:25.352Z,10.93
2022-10-04T04:35:55.517Z,10.90
2022-10-04T04:38:24.864Z,10.89
2022-10-04T04:40:56.030Z,10.95
2022-10-04T04:43:26.556Z,10.85
2022-10-04T04:46:14.922Z,10.74
2022-10-04T04:48:45.102Z,10.87
2022-10-04T04:51:20.557Z,10.78
2022-10-04T04:53:48.334Z,10.89
2022-10-04T04:56:19.700Z,10.90
2022-10-04T04:58:48.529Z,10.87
2022-10-04T05:01:31.527Z,10.80
2022-10-04T05:04:12.411Z,10.80
2022-10-04T05:06:41.310Z,10.78
2022-10-04T05:09:32.831Z,10.85
2022-10-04T05:12:08.451Z,10.78
2022-10-04T05:14:39.559Z,10.63
2022-10-04T05:17:06.531Z,10.71
2022-10-04T05:19:37.784Z,10.62
2022-10-04T05:22:11.408Z,10.63
2022-10-04T05:24:51.364Z,10.64
2022-10-04T05:27:40.381Z,10.72
2022-10-04T05:30:24.753Z,10.73
2022-10-04T05:33:13.796Z,10.45
2022-10-04T05:35:43.161Z,10.45
2022-10-04T05:38:23.662Z,10.28
2022-10-04T05:41:09.069Z,10.43
2022-10-04T05:43:46.271Z,10.40
2022-10-04T05:46:24.455Z,10.43
2022-10-04T05:48:55.281Z,10.41
2022-10-04T05:51:28.777Z,10.33
2022-10-04T05:53:59.730Z,10.37
2022-10-04T05:56:41.407Z,10.54
2022-10-04T05:59:50.658Z,10.52
2022-10-04T06:02:54.825Z,10.33
2022-10-04T06:06:12.415Z,10.44
2022-10-04T06:08:41.784Z,10.17
2022-10-04T06:11:11.779Z,10.51
2022-10-04T06:13:59.450Z,10.25
2022-10-04T06:16:44.941Z,10.36
2022-10-04T06:19:37.752Z,10.34
2022-10-04T06:22:14.451Z,10.40
2022-10-04T06:24:45.430Z,10.50
2022-10-04T06:27:19.996Z,10.35
2022-10-04T06:29:56.257Z,10.54
2022-10-04T06:32:56.976Z,10.63
2022-10-04T06:35:32.750Z,10.68
2022-10-04T06:38:40.307Z,10.34
2022-10-04T06:41:26.594Z,10.48
2022-10-04T06:44:16.148Z,10.52
2022-10-04T06:47:11.832Z,10.80
2022-10-04T06:50:00.016Z,10.74
2022-10-04T06:52:40.897Z,10.61
2022-10-04T06:55:33.152Z,10.67
2022-10-04T06:58:33.087Z,10.78
2022-10-04T07:01:09.152Z,10.60
2022-10-04T07:03:52.478Z,10.53
2022-10-04T07:06:25.827Z,10.60
2022-10-04T07:08:59.498Z,10.69
2022-10-04T07:11:37.717Z,10.85
2022-10-04T07:14:04.046Z,10.83
2022-10-04T07:16:51.084Z,10.91
2022-10-04T07:19:20.180Z,11.03
2022-10-04T07:22:15.199Z,11.05
2022-10-04T07:24:59.852Z,11.18
2022-10-04T07:27:32.397Z,11.10
2022-10-04T07:30:04.433Z,10.91
2022-10-04T07:32:44.290Z,11.01
2022-10-04T07:35:13.008Z,11.16
2022-10-04T07:38:13.164Z,11.14
2022-10-04T07:41:07.534Z,11.22
2022-10-04T07:43:59.977Z,11.14
2022-10-04T07:46:41.933Z,11.21
2022-10-04T07:49:20.374Z,11.25
2022-10-04T07:51:57.005Z,11.27
2022-10-04T07:54:47.206Z,11.48
2022-10-04T07:57:21.934Z,11.77
2022-10-04T08:00:07.184Z,11.77
2022-10-04T08:02:45.619Z,11.97
2022-10-04T08:05:29.533Z,12.10
2022-10-04T08:07:59.977Z,12.34
2022-10-04T08:10:31.749Z,12.45
2022-10-04T08:13:18.895Z,12.78
2022-10-04T08:15:46.314Z,13.10
2022-10-04T08:18:27.448Z,13.21
2022-10-04T08:20:59.607Z,13.37
2022-10-04T08:23:35.663Z,13.90
2022-10-04T08:26:07.879Z,14.60
2022-10-04T08:29:22.399Z,15.20
2022-10-04T08:32:05.524Z,15.72
2022-10-04T08:34:54.724Z,15.79
2022-10-04T08:37:24.182Z,16.02
2022-10-04T08:40:33.233Z,16.27
2022-10-04T08:43:35.569Z,16.51
2022-10-04T08:46:42.734Z,16.32
2022-10-04T08:49:31.756Z,16.90
2022-10-04T08:52:41.667Z,16.60
2022-10-04T08:55:39.259Z,16.70
2022-10-04T08:58:29.159Z,17.55
2022-10-04T09:01:11.487Z,17.94
2022-10-04T09:04:12.825Z,17.92
2022-10-04T09:06:54.884Z,17.54
2022-10-04T09:09:45.312Z,17.47
2022-10-04T09:12:42.247Z,18.56
2022-10-04T09:15:21.237Z,18.10
2022-10-04T09:18:14.077Z,18.08
2022-10-04T09:21:15.510Z,17.62
2022-10-04T09:24:18.660Z,18.41
2022-10-04T09:26:51.957Z,18.98
2022-10-04T09:30:07.145Z,18.39
2022-10-04T09:32:51.443Z,18.59
2022-10-04T09:35:36.639Z,19.32
2022-10-04T09:38:26.317Z,19.43
2022-10-04T09:41:03.750Z,19.55
2022-10-04T09:43:36.218Z,19.89
2022-10-04T09:46:16.381Z,20.15
2022-10-04T09:48:57.890Z,20.44
2022-10-04T09:52:01.808Z,19.05
2022-10-04T09:54:55.039Z,19.04
2022-10-04T09:57:33.889Z,19.40
2022-10-04T10:00:24.892Z,20.34
2022-10-04T10:03:34.181Z,20.03
2022-10-04T10:06:29.822Z,20.70
2022-10-04T10:09:44.029Z,20.47
2022-10-04T10:13:00.062Z,18.57
2022-10-04T10:15:32.411Z,17.84
2022-10-04T10:18:46.059Z,20.26
2022-10-04T10:21:26.804Z,19.57
2022-10-04T10:24:19.408Z,19.63
2022-10-04T10:27:24.966Z,19.44
2022-10-04T10:29:57.090Z,21.33
2022-10-04T10:32:42.489Z,22.10
2022-10-04T10:35:26.714Z,20.88
2022-10-04T10:38:08.483Z,20.38
2022-10-04T10:40:58.349Z,20.48
2022-10-04T10:43:46.407Z,22.02
2022-10-04T10:46:31.401Z,21.61
2022-10-04T10:49:21.386Z,22.31
2022-10-04T10:52:33.076Z,21.15
2022-10-04T10:55:29.407Z,21.83
2022-10-04T10:58:34.072Z,21.73
2022-10-04T11:02:01.010Z,21.40
2022-10-04T11:04:42.523Z,22.23
2022-10-04T11:07:37.246Z,21.21
2022-10-04T11:10:41.789Z,21.63
2022-10-04T11:13:35.550Z,22.14
2022-10-04T11:16:35.417Z,22.24
2022-10-04T11:19:24.070Z,21.82
2022-10-04T11:21:53.497Z,20.33
2022-10-04T11:25:00.427Z,21.79
2022-10-04T11:27:33.297Z,21.48
2022-10-04T11:30:26.629Z,22.22
2022-10-04T11:33:11.831Z,23.07
2022-10-04T11:36:20.620Z,22.97
2022-10-04T11:39:11.955Z,21.66
2022-10-04T11:42:01.351Z,21.86
2022-10-04T11:44:43.973Z,22.11
2022-10-04T11:47:49.357Z,21.68
2022-10-04T11:50:24.705Z,21.17
2022-10-04T11:53:25.857Z,20.99
2022-10-04T11:56:07.599Z,20.04
2022-10-04T11:58:42.786Z,19.70
2022-10-04T12:01:14.108Z,20.14
2022-10-04T12:03:55.062Z,19.95
2022-10-04T12:07:26.710Z,19.99
2022-10-04T12:10:28.723Z,20.38
2022-10-04T12:13:14.206Z,19.94
2022-10-04T12:16:10.976Z,19.77
2022-10-04T12:18:58.354Z,19.81
2022-10-04T12:21:41.036Z,20.25
2022-10-04T12:24:49.063Z,20.08
2022-10-04T12:27:41.894Z,20.23
2022-10-04T12:30:17.099Z,20.15
2022-10-04T12:33:06.892Z,21.18
2022-10-04T12:35:54.961Z,20.84
2022-10-04T12:38:46.540Z,20.52
2022-10-04T12:41:30.779Z,20.69
2022-10-04T12:44:15.369Z,20.87
2022-10-04T12:47:02.969Z,21.26
2022-10-04T12:49:56.329Z,21.19
2022-10-04T12:52:27.103Z,21.44
2022-10-04T12:55:09.892Z,20.90
2022-10-04T12:57:47.586Z,20.55
2022-10-04T13:00:20.835Z,20.40
2022-10-04T13:03:02.893Z,21.16
2022-10-04T13:05:47.766Z,21.18
2022-10-04T13:08:27.797Z,21.01
2022-10-04T13:11:02.917Z,21.91
2022-10-04T13:13:56.536Z,21.67
2022-10-04T13:19:32.889Z,21.26
2022-10-04T13:22:15.630Z,20.80
2022-10-04T13:24:55.333Z,21.47
2022-10-04T13:27:27.175Z,22.30
2022-10-04T13:30:26.407Z,22.05
2022-10-04T13:33:17.888Z,21.43
2022-10-04T13:36:05.282Z,21.57
2022-10-04T13:38:35.585Z,20.75
2022-10-04T13:41:11.160Z,21.36
2022-10-04T13:43:40.434Z,21.28
2022-10-04T13:46:26.619Z,20.31
2022-10-04T13:49:24.108Z,20.51
2022-10-04T13:52:37.098Z,20.19
2022-10-04T13:55:28.323Z,20.26
2022-10-04T13:58:02.111Z,20.13
2022-10-04T14:00:50.716Z,19.82
2022-10-04T14:03:36.095Z,19.69
2022-10-04T14:06:11.385Z,19.77
2022-10-04T14:08:48.343Z,19.52
2022-10-04T14:11:47.267Z,19.30
2022-10-04T14:14:39.987Z,19.16
2022-10-04T14:17:45.044Z,19.31
2022-10-04T14:20:48.171Z,19.58
2022-10-04T14:23:36.308Z,19.20
2022-10-04T14:26:08.425Z,19.47
2022-10-04T14:28:59.183Z,19.37
2022-10-04T14:31:46.609Z,19.25
2022-10-04T14:35:00.339Z,19.03
2022-10-04T14:38:04.185Z,19.08
2022-10-04T14:41:08.672Z,19.08
2022-10-04T14:43:47.224Z,18.97
2022-10-04T14:46:40.473Z,19.08
2022-10-04T14:49:15.707Z,19.07
2022-10-04T14:52:08.519Z,18.99
2022-10-04T14:54:53.998Z,18.74
2022-10-04T14:57:38.826Z,18.81
2022-10-04T15:00:17.365Z,18.57
2022-10-04T15:03:09.938Z,18.53
2022-10-04T15:05:59.744Z,18.72
2022-10-04T15:08:34.908Z,18.66
2022-10-04T15:11:04.435Z,18.72
2022-10-04T15:13:48.876Z,18.60
2022-10-04T15:16:47.398Z,18.23
2022-10-04T15:19:20.165Z,18.39
2022-10-04T15:21:55.466Z,18.18
2022-10-04T15:24:43.447Z,18.11
2022-10-04T15:27:34.901Z,17.95
2022-10-04T15:30:21.872Z,17.93
2022-10-04T15:33:25.366Z,17.84
2022-10-04T15:35:57.691Z,17.85
2022-10-04T15:39:03.983Z,17.82
2022-10-04T15:41:52.545Z,17.78
2022-10-04T15:44:46.796Z,17.64
2022-10-04T15:47:21.721Z,17.68
2022-10-04T15:49:55.683Z,17.56
2022-10-04T15:52:52.807Z,17.52
2022-10-04T15:55:31.790Z,17.51
2022-10-04T15:58:16.878Z,17.56
2022-10-04T16:00:52.980Z,17.42
2022-10-04T16:03:41.053Z,17.36
2022-10-04T16:06:27.980Z,17.42
2022-10-04T16:09:18.368Z,17.30
2022-10-04T16:12:02.868Z,17.31
2022-10-04T16:14:45.125Z,17.33
2022-10-04T16:17:32.267Z,17.31
2022-10-04T16:20:23.881Z,17.28
2022-10-04T16:23:29.707Z,17.24
2022-10-04T16:25:58.921Z,17.23
2022-10-04T16:28:31.417Z,17.06
2022-10-04T16:31:20.192Z,16.93
2022-10-04T16:34:11.759Z,16.95
2022-10-04T16:36:48.634Z,16.89
2022-10-04T16:39:52.432Z,16.84
2022-10-04T16:42:24.998Z,16.74
2022-10-04T16:45:11.866Z,16.70
2022-10-04T16:47:47.382Z,16.54
2022-10-04T16:50:14.272Z,16.65
2022-10-04T16:53:04.389Z,16.62
2022-10-04T16:55:51.489Z,16.56
2022-10-04T16:58:43.361Z,16.58
2022-10-04T17:01:22.027Z,16.56
2022-10-04T17:04:04.028Z,16.48
2022-10-04T17:06:59.641Z,16.51
2022-10-04T17:09:29.044Z,16.53
2022-10-04T17:12:14.207Z,16.51
2022-10-04T17:14:56.607Z,16.53
2022-10-04T17:17:35.034Z,16.34
2022-10-04T17:20:17.805Z,16.32
2022-10-04T17:23:18.377Z,16.23
2022-10-04T17:25:57.076Z,16.31
2022-10-04T17:28:30.497Z,16.23
2022-10-04T17:31:08.478Z,16.23
2022-10-04T17:33:34.791Z,16.11
2022-10-04T17:36:23.905Z,16.04
2022-10-04T17:39:18.739Z,16.11
2022-10-04T17:42:01.203Z,16.11
2022-10-04T17:44:34.160Z,16.03
2022-10-04T17:47:04.342Z,15.99
2022-10-04T17:49:55.116Z,15.98
2022-10-04T17:52:48.113Z,15.93
2022-10-04T17:55:28.815Z,15.95
2022-10-04T17:58:14.682Z,15.87
2022-10-04T18:01:07.717Z,15.79
2022-10-04T18:03:45.326Z,15.80
2022-10-04T18:06:25.554Z,15.76
2022-10-04T18:08:58.995Z,15.72
2022-10-04T18:11:44.132Z,15.78
2022-10-04T18:14:21.073Z,15.77
2022-10-04T18:16:54.451Z,15.76
2022-10-04T18:19:54.731Z,15.81
2022-10-04T18:22:26.490Z,15.79
2022-10-04T18:25:14.084Z,15.77
2022-10-04T18:28:06.862Z,15.85
2022-10-04T18:30:48.915Z,15.86
2022-10-04T18:33:16.918Z,15.83
2022-10-04T18:36:07.645Z,15.88
2022-10-04T18:38:35.101Z,15.86
2022-10-04T18:41:23.325Z,15.86
2022-10-04T18:43:52.280Z,15.85
2022-10-04T18:46:21.170Z,15.82
2022-10-04T18:48:56.596Z,15.86
2022-10-04T18:51:29.726Z,15.89
2022-10-04T18:54:13.746Z,15.92
2022-10-04T18:57:14.205Z,15.87
2022-10-04T19:00:20.865Z,15.86
2022-10-04T19:02:58.807Z,15.82
2022-10-04T19:05:51.378Z,15.89
2022-10-04T19:08:37.084Z,15.83
2022-10-04T19:11:15.960Z,15.78
2022-10-04T19:14:08.604Z,15.79
2022-10-04T19:17:03.145Z,15.76
2022-10-04T19:19:51.479Z,15.73
2022-10-04T19:22:39.512Z,15.72
2022-10-04T19:25:30.015Z,15.68
2022-10-04T19:28:18.829Z,15.66
2022-10-04T19:30:57.139Z,15.68
2022-10-04T19:33:45.327Z,15.67
2022-10-04T19:36:46.484Z,15.59
2022-10-04T19:39:39.811Z,15.52
2022-10-04T19:42:13.946Z,15.60
2022-10-04T19:44:52.578Z,15.53
2022-10-04T19:47:43.987Z,15.58
2022-10-04T19:50:35.236Z,15.52
2022-10-04T19:53:18.853Z,15.53
2022-10-04T19:55:56.646Z,15.55
2022-10-04T19:58:36.660Z,15.56
2022-10-04T20:01:11.361Z,15.58
2022-10-04T20:03:38.248Z,15.53
2022-10-04T20:06:05.531Z,15.53
2022-10-04T20:08:47.139Z,15.53
2022-10-04T20:11:20.740Z,15.52
2022-10-04T20:14:16.864Z,15.44
2022-10-04T20:16:46.643Z,15.45
2022-10-04T20:19:18.002Z,15.51
2022-10-04T20:21:45.395Z,15.52
2022-10-04T20:24:17.215Z,15.50
2022-10-04T20:26:56.833Z,15.54
2022-10-04T20:29:38.511Z,15.56
2022-10-04T20:32:06.188Z,15.52
2022-10-04T20:34:38.573Z,15.55
2022-10-04T20:37:09.918Z,15.54
2022-10-04T20:39:39.970Z,15.60
2022-10-04T20:42:36.349Z,15.60
2022-10-04T20:45:22.232Z,15.54
2022-10-04T20:47:52.440Z,15.62
2022-10-04T20:50:29.957Z,15.59
2022-10-04T20:52:58.833Z,15.56
2022-10-04T20:55:28.482Z,15.53
2022-10-04T20:57:58.292Z,15.53
2022-10-04T21:00:26.971Z,15.55
2022-10-04T21:03:09.736Z,15.56
2022-10-04T21:05:36.708Z,15.52
2022-10-04T21:08:24.778Z,15.55
2022-10-04T21:11:06.114Z,15.52
2022-10-04T21:13:59.693Z,15.53
2022-10-04T21:16:48.415Z,15.52
2022-10-04T21:19:44.020Z,15.49
2022-10-04T21:22:16.342Z,15.51
2022-10-04T21:24:48.796Z,15.48
2022-10-04T21:27:39.586Z,15.49
2022-10-04T21:30:12.816Z,15.46
2022-10-04T21:32:39.251Z,15.46
2022-10-04T21:35:07.314Z,15.45
2022-10-04T21:37:34.707Z,15.43
2022-10-04T21:40:01.387Z,15.41
2022-10-04T21:42:28.072Z,15.39
2022-10-04T21:44:54.427Z,15.42
2022-10-04T21:47:21.719Z,15.39
2022-10-04T21:49:49.640Z,15.40
2022-10-04T21:52:18.023Z,15.36
2022-10-04T21:54:45.233Z,15.37
2022-10-04T21:57:12.704Z,15.35
2022-10-04T21:59:39.145Z,15.34
2022-10-04T22:02:06.837Z,15.33
2022-10-04T22:04:33.395Z,15.34
2022-10-04T22:06:59.756Z,15.31
2022-10-04T22:09:26.416Z,15.35
2022-10-04T22:11:52.805Z,15.32
2022-10-04T22:14:19.173Z,15.32
2022-10-04T22:16:45.947Z,15.30
2022-10-04T22:19:12.527Z,15.26
2022-10-04T22:21:38.919Z,15.25
2022-10-04T22:24:16.011Z,15.28
2022-10-04T22:26:42.367Z,15.27
2022-10-04T22:29:13.463Z,15.27
2022-10-04T22:31:43.983Z,15.22
2022-10-04T22:34:19.380Z,15.25
2022-10-04T22:36:47.715Z,15.24
2022-10-04T22:39:17.499Z,15.20
2022-10-04T22:42:00.348Z,15.28
2022-10-04T22:44:37.884Z,15.23
2022-10-04T22:47:10.875Z,15.20
2022-10-04T22:49:40.118Z,15.18
2022-10-04T22:52:13.450Z,15.17
2022-10-04T22:54:44.381Z,15.11
2022-10-04T22:57:14.248Z,15.20
2022-10-04T22:59:46.593Z,15.08
2022-10-04T23:02:19.592Z,15.11
2022-10-04T23:04:51.542Z,15.11
2022-10-04T23:07:19.264Z,15.09
2022-10-04T23:09:46.126Z,15.11
2022-10-04T23:12:12.745Z,15.11
2022-10-04T23:14:40.182Z,15.09
2022-10-04T23:17:22.957Z,15.04
2022-10-04T23:19:55.289Z,15.08
2022-10-04T23:22:27.686Z,14.96
2022-10-04T23:24:55.256Z,15.08
2022-10-04T23:27:21.970Z,15.10
2022-10-04T23:29:58.939Z,15.09
2022-10-04T23:32:26.324Z,15.12
2022-10-04T23:34:56.673Z,15.00
2022-10-04T23:37:27.243Z,14.99
2022-10-04T23:39:53.646Z,15.02
2022-10-04T23:42:28.887Z,15.04
2022-10-04T23:44:57.595Z,15.04
2022-10-04T23:47:30.368Z,15.02
2022-10-04T23:49:56.734Z,15.02
2022-10-04T23:52:26.470Z,15.06
2022-10-04T23:54:53.889Z,14.99
2022-10-04T23:57:23.677Z,15.01
2022-10-04T23:59:50.327Z,14.95
